Muckle Holm, United Kingdom
Current Conditions -  °F | °C
As of 5:50 AM on Tuesday 27 Jan 2015 (Local Time) from EGPM Reporting Station
Drizzle Drizzle  
Wind Chill:   Ceiling: 200
Heat Index:   Visibility: 2.4mi
Dew Point:   Wind: 18mph
Humidity: 93%   Direction: 230°SW
Pressure: 29.83"   Gusts: NA
Location:  60.58°N, 1.27°W
Report Text: EGPM 270550Z AUTO 23016KT 3900 DZ BKN002/// OVC011/// 07/06 Q1010 RERA
Loading
Personal Weather Stations






























Interactive Weather Map New forecast layout! Learn more

10-Day Weather Forecast

Advertisements
Track Severe Weather on mobile